sensor_id;sensor_type;location;lat;lon;timestamp;P1;durP1;ratioP1;P2;durP2;ratioP2
56728;SDS011;42612;52.232;7.560;2023-10-09T00:01:03;2.80;;;1.83;;
56728;SDS011;42612;52.232;7.560;2023-10-09T00:03:42;3.03;;;1.40;;
56728;SDS011;42612;52.232;7.560;2023-10-09T00:06:09;5.38;;;1.77;;
56728;SDS011;42612;52.232;7.560;2023-10-09T00:08:38;2.72;;;1.38;;
56728;SDS011;42612;52.232;7.560;2023-10-09T00:11:09;1.88;;;1.50;;
56728;SDS011;42612;52.232;7.560;2023-10-09T00:13:42;2.63;;;1.80;;
56728;SDS011;42612;52.232;7.560;2023-10-09T00:16:22;4.30;;;1.73;;
56728;SDS011;42612;52.232;7.560;2023-10-09T00:19:00;2.45;;;1.65;;
56728;SDS011;42612;52.232;7.560;2023-10-09T00:21:43;7.07;;;2.38;;
56728;SDS011;42612;52.232;7.560;2023-10-09T00:24:13;1.88;;;1.58;;
56728;SDS011;42612;52.232;7.560;2023-10-09T00:26:40;2.45;;;1.70;;
56728;SDS011;42612;52.232;7.560;2023-10-09T00:29:09;2.03;;;1.80;;
56728;SDS011;42612;52.232;7.560;2023-10-09T00:31:43;4.30;;;2.35;;
56728;SDS011;42612;52.232;7.560;2023-10-09T00:34:18;2.53;;;1.73;;
56728;SDS011;42612;52.232;7.560;2023-10-09T00:36:45;3.67;;;2.10;;
56728;SDS011;42612;52.232;7.560;2023-10-09T00:39:17;2.70;;;1.67;;
56728;SDS011;42612;52.232;7.560;2023-10-09T00:42:07;4.22;;;1.98;;
56728;SDS011;42612;52.232;7.560;2023-10-09T00:44:32;5.47;;;2.13;;
56728;SDS011;42612;52.232;7.560;2023-10-09T00:47:11;5.78;;;2.05;;
56728;SDS011;42612;52.232;7.560;2023-10-09T00:49:59;4.57;;;1.70;;
56728;SDS011;42612;52.232;7.560;2023-10-09T00:52:36;2.47;;;2.00;;
56728;SDS011;42612;52.232;7.560;2023-10-09T00:55:30;4.60;;;1.98;;
56728;SDS011;42612;52.232;7.560;2023-10-09T00:58:11;2.17;;;1.98;;
56728;SDS011;42612;52.232;7.560;2023-10-09T01:00:42;2.88;;;1.85;;
56728;SDS011;42612;52.232;7.560;2023-10-09T01:03:09;5.05;;;2.17;;
56728;SDS011;42612;52.232;7.560;2023-10-09T01:05:41;4.35;;;2.22;;
56728;SDS011;42612;52.232;7.560;2023-10-09T01:08:20;4.85;;;2.17;;
56728;SDS011;42612;52.232;7.560;2023-10-09T01:10:53;2.95;;;1.95;;
56728;SDS011;42612;52.232;7.560;2023-10-09T01:13:34;4.35;;;1.95;;
56728;SDS011;42612;52.232;7.560;2023-10-09T01:16:07;5.20;;;1.88;;
56728;SDS011;42612;52.232;7.560;2023-10-09T01:18:40;3.08;;;1.90;;
56728;SDS011;42612;52.232;7.560;2023-10-09T01:21:06;4.57;;;1.98;;
56728;SDS011;42612;52.232;7.560;2023-10-09T01:23:32;2.53;;;1.95;;
56728;SDS011;42612;52.232;7.560;2023-10-09T01:25:58;3.67;;;2.50;;
56728;SDS011;42612;52.232;7.560;2023-10-09T01:28:24;5.05;;;2.20;;
56728;SDS011;42612;52.232;7.560;2023-10-09T01:30:51;2.08;;;1.75;;
56728;SDS011;42612;52.232;7.560;2023-10-09T01:33:17;2.92;;;1.90;;
56728;SDS011;42612;52.232;7.560;2023-10-09T01:35:47;3.22;;;2.03;;
56728;SDS011;42612;52.232;7.560;2023-10-09T01:38:15;3.30;;;2.15;;
56728;SDS011;42612;52.232;7.560;2023-10-09T01:40:41;5.82;;;2.58;;
56728;SDS011;42612;52.232;7.560;2023-10-09T01:43:08;8.05;;;2.97;;
56728;SDS011;42612;52.232;7.560;2023-10-09T01:45:38;7.72;;;2.90;;
56728;SDS011;42612;52.232;7.560;2023-10-09T01:48:13;5.30;;;2.85;;
56728;SDS011;42612;52.232;7.560;2023-10-09T01:50:40;8.27;;;2.90;;
56728;SDS011;42612;52.232;7.560;2023-10-09T01:53:07;7.70;;;2.38;;
56728;SDS011;42612;52.232;7.560;2023-10-09T01:55:33;3.67;;;2.30;;
56728;SDS011;42612;52.232;7.560;2023-10-09T01:58:09;6.78;;;2.80;;
56728;SDS011;42612;52.232;7.560;2023-10-09T02:00:47;6.97;;;3.13;;
56728;SDS011;42612;52.232;7.560;2023-10-09T02:05:42;5.00;;;3.03;;
56728;SDS011;42612;52.232;7.560;2023-10-09T02:08:08;6.00;;;3.33;;
56728;SDS011;42612;52.232;7.560;2023-10-09T02:13:03;5.20;;;2.67;;
56728;SDS011;42612;52.232;7.560;2023-10-09T02:15:37;6.45;;;3.38;;
56728;SDS011;42612;52.232;7.560;2023-10-09T02:20:53;5.03;;;2.95;;
56728;SDS011;42612;52.232;7.560;2023-10-09T02:23:31;9.02;;;4.32;;
56728;SDS011;42612;52.232;7.560;2023-10-09T02:26:06;7.38;;;4.00;;
56728;SDS011;42612;52.232;7.560;2023-10-09T02:28:34;7.40;;;3.97;;
56728;SDS011;42612;52.232;7.560;2023-10-09T02:31:00;9.48;;;3.65;;
56728;SDS011;42612;52.232;7.560;2023-10-09T02:33:37;6.63;;;3.83;;
56728;SDS011;42612;52.232;7.560;2023-10-09T02:36:06;9.02;;;4.28;;
56728;SDS011;42612;52.232;7.560;2023-10-09T02:38:33;8.13;;;4.90;;
56728;SDS011;42612;52.232;7.560;2023-10-09T02:41:01;9.90;;;4.38;;
56728;SDS011;42612;52.232;7.560;2023-10-09T02:43:31;6.35;;;4.30;;
56728;SDS011;42612;52.232;7.560;2023-10-09T02:46:09;7.60;;;4.30;;
56728;SDS011;42612;52.232;7.560;2023-10-09T02:48:46;10.02;;;4.68;;
56728;SDS011;42612;52.232;7.560;2023-10-09T02:51:16;8.40;;;4.25;;
56728;SDS011;42612;52.232;7.560;2023-10-09T02:53:58;8.27;;;4.38;;
56728;SDS011;42612;52.232;7.560;2023-10-09T02:56:47;6.20;;;4.03;;
56728;SDS011;42612;52.232;7.560;2023-10-09T02:59:19;6.80;;;4.80;;
56728;SDS011;42612;52.232;7.560;2023-10-09T03:01:47;10.63;;;5.13;;
56728;SDS011;42612;52.232;7.560;2023-10-09T03:04:13;7.53;;;4.72;;
56728;SDS011;42612;52.232;7.560;2023-10-09T03:06:39;6.88;;;4.53;;
56728;SDS011;42612;52.232;7.560;2023-10-09T03:09:14;8.25;;;4.75;;
56728;SDS011;42612;52.232;7.560;2023-10-09T03:11:48;9.27;;;4.95;;
56728;SDS011;42612;52.232;7.560;2023-10-09T03:14:18;10.43;;;5.80;;
56728;SDS011;42612;52.232;7.560;2023-10-09T03:16:51;8.43;;;5.30;;
56728;SDS011;42612;52.232;7.560;2023-10-09T03:19:17;10.17;;;5.47;;
56728;SDS011;42612;52.232;7.560;2023-10-09T03:21:43;10.32;;;5.80;;
56728;SDS011;42612;52.232;7.560;2023-10-09T03:24:10;13.05;;;6.13;;
56728;SDS011;42612;52.232;7.560;2023-10-09T03:26:36;9.50;;;5.35;;
56728;SDS011;42612;52.232;7.560;2023-10-09T03:29:02;13.70;;;5.57;;
56728;SDS011;42612;52.232;7.560;2023-10-09T03:31:38;8.77;;;5.60;;
56728;SDS011;42612;52.232;7.560;2023-10-09T03:34:04;9.27;;;5.78;;
56728;SDS011;42612;52.232;7.560;2023-10-09T03:39:02;10.88;;;5.47;;
56728;SDS011;42612;52.232;7.560;2023-10-09T03:41:50;9.52;;;5.43;;
56728;SDS011;42612;52.232;7.560;2023-10-09T03:44:23;14.30;;;6.75;;
56728;SDS011;42612;52.232;7.560;2023-10-09T03:46:55;10.88;;;6.07;;
56728;SDS011;42612;52.232;7.560;2023-10-09T03:49:21;9.32;;;5.70;;
56728;SDS011;42612;52.232;7.560;2023-10-09T03:51:51;10.20;;;6.10;;
56728;SDS011;42612;52.232;7.560;2023-10-09T03:54:18;10.77;;;6.35;;
56728;SDS011;42612;52.232;7.560;2023-10-09T03:56:50;9.65;;;5.47;;
56728;SDS011;42612;52.232;7.560;2023-10-09T03:59:17;8.30;;;5.60;;
56728;SDS011;42612;52.232;7.560;2023-10-09T04:01:45;10.55;;;6.13;;
56728;SDS011;42612;52.232;7.560;2023-10-09T04:04:13;8.57;;;5.65;;
56728;SDS011;42612;52.232;7.560;2023-10-09T04:06:39;11.13;;;6.18;;
56728;SDS011;42612;52.232;7.560;2023-10-09T04:11:59;11.07;;;6.00;;
56728;SDS011;42612;52.232;7.560;2023-10-09T04:14:40;11.13;;;6.00;;
56728;SDS011;42612;52.232;7.560;2023-10-09T04:17:27;9.35;;;5.80;;
56728;SDS011;42612;52.232;7.560;2023-10-09T04:19:55;10.52;;;5.55;;
56728;SDS011;42612;52.232;7.560;2023-10-09T04:22:40;8.63;;;6.20;;
56728;SDS011;42612;52.232;7.560;2023-10-09T04:25:25;18.33;;;9.85;;
56728;SDS011;42612;52.232;7.560;2023-10-09T04:27:55;146.35;;;82.30;;
56728;SDS011;42612;52.232;7.560;2023-10-09T04:30:34;77.70;;;38.80;;
56728;SDS011;42612;52.232;7.560;2023-10-09T04:33:11;18.35;;;11.13;;
56728;SDS011;42612;52.232;7.560;2023-10-09T04:36:13;16.88;;;9.07;;
56728;SDS011;42612;52.232;7.560;2023-10-09T04:38:54;16.58;;;8.88;;
56728;SDS011;42612;52.232;7.560;2023-10-09T04:41:32;18.95;;;9.40;;
56728;SDS011;42612;52.232;7.560;2023-10-09T04:44:00;11.32;;;7.07;;
56728;SDS011;42612;52.232;7.560;2023-10-09T04:46:44;15.23;;;7.10;;
56728;SDS011;42612;52.232;7.560;2023-10-09T04:49:31;13.80;;;7.35;;
56728;SDS011;42612;52.232;7.560;2023-10-09T04:52:17;11.68;;;6.80;;
56728;SDS011;42612;52.232;7.560;2023-10-09T04:54:50;11.80;;;6.90;;
56728;SDS011;42612;52.232;7.560;2023-10-09T05:00:26;9.90;;;6.40;;
56728;SDS011;42612;52.232;7.560;2023-10-09T05:05:23;13.15;;;7.05;;
56728;SDS011;42612;52.232;7.560;2023-10-09T05:08:06;11.77;;;6.38;;
56728;SDS011;42612;52.232;7.560;2023-10-09T05:10:55;12.15;;;6.75;;
56728;SDS011;42612;52.232;7.560;2023-10-09T05:13:26;11.80;;;6.70;;
56728;SDS011;42612;52.232;7.560;2023-10-09T05:16:13;13.82;;;7.43;;
56728;SDS011;42612;52.232;7.560;2023-10-09T05:18:47;9.85;;;6.47;;
56728;SDS011;42612;52.232;7.560;2023-10-09T05:21:33;11.85;;;7.43;;
56728;SDS011;42612;52.232;7.560;2023-10-09T05:24:10;10.32;;;6.72;;
56728;SDS011;42612;52.232;7.560;2023-10-09T05:26:37;14.10;;;7.18;;
56728;SDS011;42612;52.232;7.560;2023-10-09T05:29:13;13.77;;;8.05;;
56728;SDS011;42612;52.232;7.560;2023-10-09T05:31:48;12.68;;;6.97;;
56728;SDS011;42612;52.232;7.560;2023-10-09T05:34:22;11.43;;;6.82;;
56728;SDS011;42612;52.232;7.560;2023-10-09T05:36:58;8.68;;;6.60;;
56728;SDS011;42612;52.232;7.560;2023-10-09T05:39:47;13.50;;;7.35;;
56728;SDS011;42612;52.232;7.560;2023-10-09T05:42:26;15.93;;;7.55;;
56728;SDS011;42612;52.232;7.560;2023-10-09T05:45:02;11.10;;;7.63;;
56728;SDS011;42612;52.232;7.560;2023-10-09T05:47:50;11.55;;;7.72;;
56728;SDS011;42612;52.232;7.560;2023-10-09T05:50:29;12.88;;;7.50;;
56728;SDS011;42612;52.232;7.560;2023-10-09T05:52:59;13.70;;;8.60;;
56728;SDS011;42612;52.232;7.560;2023-10-09T05:55:26;17.17;;;9.05;;
56728;SDS011;42612;52.232;7.560;2023-10-09T05:58:12;12.60;;;8.40;;
56728;SDS011;42612;52.232;7.560;2023-10-09T06:00:56;15.98;;;8.73;;
56728;SDS011;42612;52.232;7.560;2023-10-09T06:03:30;14.25;;;9.02;;
56728;SDS011;42612;52.232;7.560;2023-10-09T06:06:18;14.43;;;8.93;;
56728;SDS011;42612;52.232;7.560;2023-10-09T06:09:07;17.30;;;9.88;;
56728;SDS011;42612;52.232;7.560;2023-10-09T06:11:43;16.88;;;10.05;;
56728;SDS011;42612;52.232;7.560;2023-10-09T06:14:20;18.73;;;9.50;;
56728;SDS011;42612;52.232;7.560;2023-10-09T06:17:12;16.77;;;10.05;;
56728;SDS011;42612;52.232;7.560;2023-10-09T06:19:38;16.98;;;10.30;;
56728;SDS011;42612;52.232;7.560;2023-10-09T06:22:10;17.10;;;10.32;;
56728;SDS011;42612;52.232;7.560;2023-10-09T06:24:54;16.88;;;10.55;;
56728;SDS011;42612;52.232;7.560;2023-10-09T06:27:22;20.98;;;11.23;;
56728;SDS011;42612;52.232;7.560;2023-10-09T06:29:54;17.10;;;10.45;;
56728;SDS011;42612;52.232;7.560;2023-10-09T06:32:39;17.35;;;10.48;;
56728;SDS011;42612;52.232;7.560;2023-10-09T06:35:28;22.75;;;12.00;;
56728;SDS011;42612;52.232;7.560;2023-10-09T06:37:58;18.70;;;11.02;;
56728;SDS011;42612;52.232;7.560;2023-10-09T06:40:31;20.40;;;11.43;;
56728;SDS011;42612;52.232;7.560;2023-10-09T06:43:17;19.73;;;12.00;;
56728;SDS011;42612;52.232;7.560;2023-10-09T06:45:46;16.23;;;10.43;;
56728;SDS011;42612;52.232;7.560;2023-10-09T06:48:40;19.17;;;11.80;;
56728;SDS011;42612;52.232;7.560;2023-10-09T06:51:10;19.25;;;11.52;;
56728;SDS011;42612;52.232;7.560;2023-10-09T06:53:40;17.45;;;10.30;;
56728;SDS011;42612;52.232;7.560;2023-10-09T06:58:56;16.30;;;10.23;;
56728;SDS011;42612;52.232;7.560;2023-10-09T07:01:30;17.50;;;11.02;;
56728;SDS011;42612;52.232;7.560;2023-10-09T07:04:10;19.05;;;11.20;;
56728;SDS011;42612;52.232;7.560;2023-10-09T07:06:55;19.20;;;10.75;;
56728;SDS011;42612;52.232;7.560;2023-10-09T07:09:21;17.60;;;11.35;;
56728;SDS011;42612;52.232;7.560;2023-10-09T07:14:15;20.23;;;11.32;;
56728;SDS011;42612;52.232;7.560;2023-10-09T07:17:17;18.95;;;11.38;;
56728;SDS011;42612;52.232;7.560;2023-10-09T07:19:58;16.80;;;10.45;;
56728;SDS011;42612;52.232;7.560;2023-10-09T07:22:36;18.27;;;10.77;;
56728;SDS011;42612;52.232;7.560;2023-10-09T07:25:17;17.90;;;11.43;;
56728;SDS011;42612;52.232;7.560;2023-10-09T07:28:06;18.40;;;10.98;;
56728;SDS011;42612;52.232;7.560;2023-10-09T07:30:52;19.75;;;10.75;;
56728;SDS011;42612;52.232;7.560;2023-10-09T07:33:22;19.23;;;11.48;;
56728;SDS011;42612;52.232;7.560;2023-10-09T07:36:00;21.00;;;11.15;;
56728;SDS011;42612;52.232;7.560;2023-10-09T07:38:31;16.60;;;10.90;;
56728;SDS011;42612;52.232;7.560;2023-10-09T07:41:01;16.35;;;10.70;;
56728;SDS011;42612;52.232;7.560;2023-10-09T07:43:34;16.55;;;10.90;;
56728;SDS011;42612;52.232;7.560;2023-10-09T07:46:08;19.02;;;10.75;;
56728;SDS011;42612;52.232;7.560;2023-10-09T07:48:57;17.05;;;10.75;;
56728;SDS011;42612;52.232;7.560;2023-10-09T07:51:39;19.05;;;11.02;;
56728;SDS011;42612;52.232;7.560;2023-10-09T07:54:09;23.75;;;11.93;;
56728;SDS011;42612;52.232;7.560;2023-10-09T07:56:39;18.23;;;11.20;;
56728;SDS011;42612;52.232;7.560;2023-10-09T07:59:10;19.48;;;11.45;;
56728;SDS011;42612;52.232;7.560;2023-10-09T08:01:41;19.55;;;10.95;;
56728;SDS011;42612;52.232;7.560;2023-10-09T08:04:17;18.85;;;11.40;;
56728;SDS011;42612;52.232;7.560;2023-10-09T08:07:02;17.45;;;11.10;;
56728;SDS011;42612;52.232;7.560;2023-10-09T08:09:34;19.77;;;11.85;;
56728;SDS011;42612;52.232;7.560;2023-10-09T08:12:12;20.77;;;11.90;;
56728;SDS011;42612;52.232;7.560;2023-10-09T08:15:10;17.02;;;11.35;;
56728;SDS011;42612;52.232;7.560;2023-10-09T08:17:46;18.00;;;11.30;;
56728;SDS011;42612;52.232;7.560;2023-10-09T08:20:21;16.10;;;11.13;;
56728;SDS011;42612;52.232;7.560;2023-10-09T08:22:51;16.92;;;11.77;;
56728;SDS011;42612;52.232;7.560;2023-10-09T08:25:21;19.98;;;11.77;;
56728;SDS011;42612;52.232;7.560;2023-10-09T08:27:51;18.00;;;10.98;;
56728;SDS011;42612;52.232;7.560;2023-10-09T08:30:22;18.45;;;11.07;;
56728;SDS011;42612;52.232;7.560;2023-10-09T08:32:50;17.95;;;11.55;;
56728;SDS011;42612;52.232;7.560;2023-10-09T08:35:38;21.38;;;11.63;;
56728;SDS011;42612;52.232;7.560;2023-10-09T08:38:13;17.67;;;11.30;;
56728;SDS011;42612;52.232;7.560;2023-10-09T08:40:42;21.08;;;12.68;;
56728;SDS011;42612;52.232;7.560;2023-10-09T08:48:13;18.55;;;11.00;;
56728;SDS011;42612;52.232;7.560;2023-10-09T08:50:46;16.02;;;10.77;;
56728;SDS011;42612;52.232;7.560;2023-10-09T08:53:19;18.65;;;11.45;;
56728;SDS011;42612;52.232;7.560;2023-10-09T08:55:46;18.13;;;10.65;;
56728;SDS011;42612;52.232;7.560;2023-10-09T08:58:12;15.65;;;10.68;;
56728;SDS011;42612;52.232;7.560;2023-10-09T09:03:16;15.90;;;11.18;;
56728;SDS011;42612;52.232;7.560;2023-10-09T09:05:45;16.33;;;10.77;;
56728;SDS011;42612;52.232;7.560;2023-10-09T09:08:21;15.32;;;10.15;;
56728;SDS011;42612;52.232;7.560;2023-10-09T09:10:59;16.25;;;9.43;;
56728;SDS011;42612;52.232;7.560;2023-10-09T09:16:14;16.35;;;9.95;;
56728;SDS011;42612;52.232;7.560;2023-10-09T09:18:53;18.55;;;10.68;;
56728;SDS011;42612;52.232;7.560;2023-10-09T09:21:26;15.80;;;10.07;;
56728;SDS011;42612;52.232;7.560;2023-10-09T09:23:59;16.65;;;10.30;;
56728;SDS011;42612;52.232;7.560;2023-10-09T09:26:36;16.13;;;10.80;;
56728;SDS011;42612;52.232;7.560;2023-10-09T09:29:09;15.63;;;9.38;;
56728;SDS011;42612;52.232;7.560;2023-10-09T09:31:36;16.13;;;9.48;;
56728;SDS011;42612;52.232;7.560;2023-10-09T09:34:06;15.38;;;9.93;;
56728;SDS011;42612;52.232;7.560;2023-10-09T09:36:54;14.45;;;9.68;;
56728;SDS011;42612;52.232;7.560;2023-10-09T09:39:22;16.10;;;10.48;;
56728;SDS011;42612;52.232;7.560;2023-10-09T09:41:57;13.13;;;8.95;;
56728;SDS011;42612;52.232;7.560;2023-10-09T09:44:32;17.35;;;9.93;;
56728;SDS011;42612;52.232;7.560;2023-10-09T09:47:08;14.43;;;9.65;;
56728;SDS011;42612;52.232;7.560;2023-10-09T09:49:40;14.57;;;9.90;;
56728;SDS011;42612;52.232;7.560;2023-10-09T09:52:08;16.48;;;9.73;;
56728;SDS011;42612;52.232;7.560;2023-10-09T09:54:38;16.60;;;9.90;;
56728;SDS011;42612;52.232;7.560;2023-10-09T09:57:04;16.97;;;11.23;;
56728;SDS011;42612;52.232;7.560;2023-10-09T09:59:36;13.75;;;9.57;;
56728;SDS011;42612;52.232;7.560;2023-10-09T10:02:15;14.82;;;9.63;;
56728;SDS011;42612;52.232;7.560;2023-10-09T10:04:58;14.30;;;9.65;;
56728;SDS011;42612;52.232;7.560;2023-10-09T10:07:30;16.15;;;9.48;;
56728;SDS011;42612;52.232;7.560;2023-10-09T10:10:33;19.17;;;9.45;;
56728;SDS011;42612;52.232;7.560;2023-10-09T10:13:13;15.30;;;9.82;;
56728;SDS011;42612;52.232;7.560;2023-10-09T10:18:29;14.23;;;8.85;;
56728;SDS011;42612;52.232;7.560;2023-10-09T10:21:37;14.55;;;9.98;;
56728;SDS011;42612;52.232;7.560;2023-10-09T10:24:05;15.77;;;10.23;;
56728;SDS011;42612;52.232;7.560;2023-10-09T10:30:17;15.70;;;11.13;;
56728;SDS011;42612;52.232;7.560;2023-10-09T10:35:20;14.13;;;9.40;;
56728;SDS011;42612;52.232;7.560;2023-10-09T10:38:26;17.25;;;10.73;;
56728;SDS011;42612;52.232;7.560;2023-10-09T10:41:11;14.80;;;9.73;;
56728;SDS011;42612;52.232;7.560;2023-10-09T10:43:44;13.10;;;10.05;;
56728;SDS011;42612;52.232;7.560;2023-10-09T10:46:14;14.52;;;9.68;;
56728;SDS011;42612;52.232;7.560;2023-10-09T10:48:55;19.17;;;10.98;;
56728;SDS011;42612;52.232;7.560;2023-10-09T10:51:25;16.27;;;10.45;;
56728;SDS011;42612;52.232;7.560;2023-10-09T10:54:03;15.10;;;9.95;;
56728;SDS011;42612;52.232;7.560;2023-10-09T10:56:48;16.92;;;10.98;;
56728;SDS011;42612;52.232;7.560;2023-10-09T10:59:19;15.45;;;10.57;;
56728;SDS011;42612;52.232;7.560;2023-10-09T11:01:49;13.68;;;10.40;;
56728;SDS011;42612;52.232;7.560;2023-10-09T11:04:28;13.05;;;9.77;;
56728;SDS011;42612;52.232;7.560;2023-10-09T11:06:54;20.42;;;10.48;;
56728;SDS011;42612;52.232;7.560;2023-10-09T11:09:44;15.38;;;10.63;;
56728;SDS011;42612;52.232;7.560;2023-10-09T11:12:23;16.67;;;9.90;;
56728;SDS011;42612;52.232;7.560;2023-10-09T11:15:03;15.85;;;9.15;;
56728;SDS011;42612;52.232;7.560;2023-10-09T11:18:00;14.75;;;9.68;;
56728;SDS011;42612;52.232;7.560;2023-10-09T11:20:33;14.70;;;9.52;;
56728;SDS011;42612;52.232;7.560;2023-10-09T11:23:01;14.95;;;10.20;;
56728;SDS011;42612;52.232;7.560;2023-10-09T11:25:37;15.57;;;10.00;;
56728;SDS011;42612;52.232;7.560;2023-10-09T11:28:24;15.68;;;10.07;;
56728;SDS011;42612;52.232;7.560;2023-10-09T11:30:54;17.33;;;10.13;;
56728;SDS011;42612;52.232;7.560;2023-10-09T11:33:50;13.48;;;9.18;;
56728;SDS011;42612;52.232;7.560;2023-10-09T11:36:23;13.90;;;9.38;;
56728;SDS011;42612;52.232;7.560;2023-10-09T11:38:57;15.52;;;9.32;;
56728;SDS011;42612;52.232;7.560;2023-10-09T11:41:42;15.45;;;8.95;;
56728;SDS011;42612;52.232;7.560;2023-10-09T11:44:09;18.17;;;9.63;;
56728;SDS011;42612;52.232;7.560;2023-10-09T11:46:59;11.00;;;8.38;;
56728;SDS011;42612;52.232;7.560;2023-10-09T11:49:56;13.27;;;8.77;;
56728;SDS011;42612;52.232;7.560;2023-10-09T11:52:57;14.10;;;9.02;;
56728;SDS011;42612;52.232;7.560;2023-10-09T11:55:49;12.95;;;8.05;;
56728;SDS011;42612;52.232;7.560;2023-10-09T11:58:21;14.57;;;9.05;;
56728;SDS011;42612;52.232;7.560;2023-10-09T12:00:53;12.07;;;8.32;;
56728;SDS011;42612;52.232;7.560;2023-10-09T12:03:41;13.77;;;7.55;;
56728;SDS011;42612;52.232;7.560;2023-10-09T12:06:08;12.75;;;7.80;;
56728;SDS011;42612;52.232;7.560;2023-10-09T12:08:37;11.07;;;6.93;;
56728;SDS011;42612;52.232;7.560;2023-10-09T12:11:05;12.60;;;7.85;;
56728;SDS011;42612;52.232;7.560;2023-10-09T12:13:36;14.02;;;7.38;;
56728;SDS011;42612;52.232;7.560;2023-10-09T12:16:03;12.25;;;7.47;;
56728;SDS011;42612;52.232;7.560;2023-10-09T12:18:35;12.70;;;7.28;;
56728;SDS011;42612;52.232;7.560;2023-10-09T12:21:04;12.35;;;6.50;;
56728;SDS011;42612;52.232;7.560;2023-10-09T12:23:31;10.98;;;7.53;;
56728;SDS011;42612;52.232;7.560;2023-10-09T12:26:05;13.30;;;7.20;;
56728;SDS011;42612;52.232;7.560;2023-10-09T12:28:39;12.98;;;6.75;;
56728;SDS011;42612;52.232;7.560;2023-10-09T12:31:11;12.95;;;5.97;;
56728;SDS011;42612;52.232;7.560;2023-10-09T12:33:40;12.55;;;6.05;;
56728;SDS011;42612;52.232;7.560;2023-10-09T12:36:10;12.23;;;6.05;;
56728;SDS011;42612;52.232;7.560;2023-10-09T12:38:44;9.27;;;5.68;;
56728;SDS011;42612;52.232;7.560;2023-10-09T12:41:15;9.25;;;5.45;;
56728;SDS011;42612;52.232;7.560;2023-10-09T12:44:00;12.82;;;6.18;;
56728;SDS011;42612;52.232;7.560;2023-10-09T12:46:29;13.52;;;6.10;;
56728;SDS011;42612;52.232;7.560;2023-10-09T12:49:02;11.18;;;6.20;;
56728;SDS011;42612;52.232;7.560;2023-10-09T12:51:28;10.10;;;6.07;;
56728;SDS011;42612;52.232;7.560;2023-10-09T12:53:56;15.10;;;6.35;;
56728;SDS011;42612;52.232;7.560;2023-10-09T12:56:25;10.70;;;5.57;;
56728;SDS011;42612;52.232;7.560;2023-10-09T12:59:01;7.05;;;5.32;;
56728;SDS011;42612;52.232;7.560;2023-10-09T13:01:29;9.52;;;5.53;;
56728;SDS011;42612;52.232;7.560;2023-10-09T13:04:07;12.82;;;5.07;;
56728;SDS011;42612;52.232;7.560;2023-10-09T13:06:42;10.82;;;5.35;;
56728;SDS011;42612;52.232;7.560;2023-10-09T13:09:12;8.18;;;4.97;;
56728;SDS011;42612;52.232;7.560;2023-10-09T13:11:39;10.77;;;5.22;;
56728;SDS011;42612;52.232;7.560;2023-10-09T13:14:05;10.88;;;5.53;;
56728;SDS011;42612;52.232;7.560;2023-10-09T13:16:52;9.20;;;4.85;;
56728;SDS011;42612;52.232;7.560;2023-10-09T13:19:18;9.40;;;4.40;;
56728;SDS011;42612;52.232;7.560;2023-10-09T13:21:44;9.55;;;4.47;;
56728;SDS011;42612;52.232;7.560;2023-10-09T13:24:10;8.18;;;3.97;;
56728;SDS011;42612;52.232;7.560;2023-10-09T13:26:41;6.85;;;3.90;;
56728;SDS011;42612;52.232;7.560;2023-10-09T13:29:10;11.60;;;4.95;;
56728;SDS011;42612;52.232;7.560;2023-10-09T13:31:36;11.90;;;5.50;;
56728;SDS011;42612;52.232;7.560;2023-10-09T13:34:11;8.40;;;4.53;;
56728;SDS011;42612;52.232;7.560;2023-10-09T13:36:40;7.88;;;4.40;;
56728;SDS011;42612;52.232;7.560;2023-10-09T13:39:15;8.40;;;4.35;;
56728;SDS011;42612;52.232;7.560;2023-10-09T13:41:50;14.73;;;4.97;;
56728;SDS011;42612;52.232;7.560;2023-10-09T13:44:26;9.27;;;4.35;;
56728;SDS011;42612;52.232;7.560;2023-10-09T13:46:57;8.48;;;4.43;;
56728;SDS011;42612;52.232;7.560;2023-10-09T13:49:30;11.25;;;4.32;;
56728;SDS011;42612;52.232;7.560;2023-10-09T13:52:00;8.88;;;4.43;;
56728;SDS011;42612;52.232;7.560;2023-10-09T13:54:27;6.70;;;4.50;;
56728;SDS011;42612;52.232;7.560;2023-10-09T13:56:56;10.02;;;4.38;;
56728;SDS011;42612;52.232;7.560;2023-10-09T13:59:23;7.30;;;4.00;;
56728;SDS011;42612;52.232;7.560;2023-10-09T14:01:52;10.68;;;4.85;;
56728;SDS011;42612;52.232;7.560;2023-10-09T14:04:24;7.57;;;4.03;;
56728;SDS011;42612;52.232;7.560;2023-10-09T14:06:53;7.38;;;4.25;;
56728;SDS011;42612;52.232;7.560;2023-10-09T14:09:23;9.57;;;4.30;;
56728;SDS011;42612;52.232;7.560;2023-10-09T14:11:56;7.40;;;4.05;;
56728;SDS011;42612;52.232;7.560;2023-10-09T14:14:38;7.55;;;4.35;;
56728;SDS011;42612;52.232;7.560;2023-10-09T14:17:19;9.82;;;4.20;;
56728;SDS011;42612;52.232;7.560;2023-10-09T14:19:53;10.48;;;4.28;;
56728;SDS011;42612;52.232;7.560;2023-10-09T14:22:41;8.50;;;3.60;;
56728;SDS011;42612;52.232;7.560;2023-10-09T14:25:07;8.38;;;3.92;;
56728;SDS011;42612;52.232;7.560;2023-10-09T14:27:40;9.77;;;4.03;;
56728;SDS011;42612;52.232;7.560;2023-10-09T14:30:06;7.20;;;4.20;;
56728;SDS011;42612;52.232;7.560;2023-10-09T14:32:37;9.63;;;4.75;;
56728;SDS011;42612;52.232;7.560;2023-10-09T14:35:12;5.93;;;3.95;;
56728;SDS011;42612;52.232;7.560;2023-10-09T14:37:41;7.43;;;3.90;;
56728;SDS011;42612;52.232;7.560;2023-10-09T14:40:07;5.57;;;3.70;;
56728;SDS011;42612;52.232;7.560;2023-10-09T14:42:45;6.75;;;3.72;;
56728;SDS011;42612;52.232;7.560;2023-10-09T14:45:11;7.22;;;3.63;;
56728;SDS011;42612;52.232;7.560;2023-10-09T14:47:44;6.55;;;3.63;;
56728;SDS011;42612;52.232;7.560;2023-10-09T14:50:13;7.18;;;4.10;;
56728;SDS011;42612;52.232;7.560;2023-10-09T14:52:39;8.43;;;3.92;;
56728;SDS011;42612;52.232;7.560;2023-10-09T14:55:05;7.00;;;4.28;;
56728;SDS011;42612;52.232;7.560;2023-10-09T14:59:59;7.35;;;3.70;;
56728;SDS011;42612;52.232;7.560;2023-10-09T15:02:26;5.20;;;3.53;;
56728;SDS011;42612;52.232;7.560;2023-10-09T15:04:52;9.10;;;4.32;;
56728;SDS011;42612;52.232;7.560;2023-10-09T15:07:18;8.48;;;3.70;;
56728;SDS011;42612;52.232;7.560;2023-10-09T15:09:46;7.55;;;3.88;;
56728;SDS011;42612;52.232;7.560;2023-10-09T15:12:11;7.70;;;3.72;;
56728;SDS011;42612;52.232;7.560;2023-10-09T15:14:37;7.50;;;3.60;;
56728;SDS011;42612;52.232;7.560;2023-10-09T15:17:04;8.48;;;3.47;;
56728;SDS011;42612;52.232;7.560;2023-10-09T15:19:31;6.05;;;3.50;;
56728;SDS011;42612;52.232;7.560;2023-10-09T15:21:58;6.70;;;3.45;;
56728;SDS011;42612;52.232;7.560;2023-10-09T15:24:25;7.85;;;3.78;;
56728;SDS011;42612;52.232;7.560;2023-10-09T15:26:52;5.82;;;3.33;;
56728;SDS011;42612;52.232;7.560;2023-10-09T15:29:22;5.57;;;3.33;;
56728;SDS011;42612;52.232;7.560;2023-10-09T15:31:59;5.55;;;3.40;;
56728;SDS011;42612;52.232;7.560;2023-10-09T15:34:30;7.32;;;3.33;;
56728;SDS011;42612;52.232;7.560;2023-10-09T15:36:57;8.70;;;3.70;;
56728;SDS011;42612;52.232;7.560;2023-10-09T15:39:22;9.15;;;3.65;;
56728;SDS011;42612;52.232;7.560;2023-10-09T15:41:49;4.65;;;3.10;;
56728;SDS011;42612;52.232;7.560;2023-10-09T15:44:15;8.13;;;3.72;;
56728;SDS011;42612;52.232;7.560;2023-10-09T15:46:44;3.42;;;2.75;;
56728;SDS011;42612;52.232;7.560;2023-10-09T15:49:12;7.88;;;3.53;;
56728;SDS011;42612;52.232;7.560;2023-10-09T15:51:40;10.18;;;3.67;;
56728;SDS011;42612;52.232;7.560;2023-10-09T15:54:08;9.20;;;3.13;;
56728;SDS011;42612;52.232;7.560;2023-10-09T15:56:36;5.32;;;3.25;;
56728;SDS011;42612;52.232;7.560;2023-10-09T15:59:04;4.65;;;2.92;;
56728;SDS011;42612;52.232;7.560;2023-10-09T16:01:30;5.95;;;3.33;;